sensor_id;sensor_type;location;lat;lon;timestamp;P1;durP1;ratioP1;P2;durP2;ratioP2
2538;SDS011;1280;49.760;9.664;2024-01-30T00:00:29;38.13;;;23.38;;
2538;SDS011;1280;49.760;9.664;2024-01-30T00:02:58;36.03;;;24.00;;
2538;SDS011;1280;49.760;9.664;2024-01-30T00:05:26;37.33;;;23.45;;
2538;SDS011;1280;49.760;9.664;2024-01-30T00:07:54;29.10;;;19.80;;
2538;SDS011;1280;49.760;9.664;2024-01-30T00:10:22;31.15;;;22.10;;
2538;SDS011;1280;49.760;9.664;2024-01-30T00:12:50;42.30;;;25.38;;
2538;SDS011;1280;49.760;9.664;2024-01-30T00:15:20;34.55;;;21.27;;
2538;SDS011;1280;49.760;9.664;2024-01-30T00:17:48;31.52;;;22.48;;
2538;SDS011;1280;49.760;9.664;2024-01-30T00:20:18;41.22;;;25.02;;
2538;SDS011;1280;49.760;9.664;2024-01-30T00:22:47;38.53;;;23.67;;
2538;SDS011;1280;49.760;9.664;2024-01-30T00:25:15;33.20;;;24.05;;
2538;SDS011;1280;49.760;9.664;2024-01-30T00:27:43;32.05;;;22.10;;
2538;SDS011;1280;49.760;9.664;2024-01-30T00:30:12;41.05;;;24.20;;
2538;SDS011;1280;49.760;9.664;2024-01-30T00:32:42;33.35;;;22.05;;
2538;SDS011;1280;49.760;9.664;2024-01-30T00:35:10;32.72;;;21.90;;
2538;SDS011;1280;49.760;9.664;2024-01-30T00:37:38;31.67;;;21.60;;
2538;SDS011;1280;49.760;9.664;2024-01-30T00:40:06;27.38;;;19.55;;
2538;SDS011;1280;49.760;9.664;2024-01-30T00:42:36;31.83;;;20.85;;
2538;SDS011;1280;49.760;9.664;2024-01-30T00:45:05;27.65;;;19.90;;
2538;SDS011;1280;49.760;9.664;2024-01-30T00:47:33;26.92;;;18.55;;
2538;SDS011;1280;49.760;9.664;2024-01-30T00:50:03;56.28;;;28.63;;
2538;SDS011;1280;49.760;9.664;2024-01-30T00:52:31;40.13;;;24.33;;
2538;SDS011;1280;49.760;9.664;2024-01-30T00:54:59;42.53;;;25.30;;
2538;SDS011;1280;49.760;9.664;2024-01-30T00:57:27;37.35;;;23.42;;
2538;SDS011;1280;49.760;9.664;2024-01-30T00:59:55;34.10;;;21.40;;
2538;SDS011;1280;49.760;9.664;2024-01-30T01:02:24;31.05;;;19.85;;
2538;SDS011;1280;49.760;9.664;2024-01-30T01:04:51;27.70;;;20.10;;
2538;SDS011;1280;49.760;9.664;2024-01-30T01:07:20;31.10;;;19.08;;
2538;SDS011;1280;49.760;9.664;2024-01-30T01:09:48;26.42;;;18.17;;
2538;SDS011;1280;49.760;9.664;2024-01-30T01:12:16;30.92;;;18.85;;
2538;SDS011;1280;49.760;9.664;2024-01-30T01:14:45;29.95;;;19.88;;
2538;SDS011;1280;49.760;9.664;2024-01-30T01:17:13;31.55;;;19.27;;
2538;SDS011;1280;49.760;9.664;2024-01-30T01:19:41;32.10;;;20.02;;
2538;SDS011;1280;49.760;9.664;2024-01-30T01:22:09;26.65;;;18.10;;
2538;SDS011;1280;49.760;9.664;2024-01-30T01:24:39;29.95;;;19.40;;
2538;SDS011;1280;49.760;9.664;2024-01-30T01:27:07;29.98;;;19.10;;
2538;SDS011;1280;49.760;9.664;2024-01-30T01:29:35;29.80;;;20.42;;
2538;SDS011;1280;49.760;9.664;2024-01-30T01:32:03;32.45;;;19.40;;
2538;SDS011;1280;49.760;9.664;2024-01-30T01:34:31;34.72;;;20.10;;
2538;SDS011;1280;49.760;9.664;2024-01-30T01:37:00;33.03;;;20.15;;
2538;SDS011;1280;49.760;9.664;2024-01-30T01:39:28;27.10;;;18.75;;
2538;SDS011;1280;49.760;9.664;2024-01-30T01:41:57;32.65;;;20.10;;
2538;SDS011;1280;49.760;9.664;2024-01-30T01:44:25;27.65;;;18.45;;
2538;SDS011;1280;49.760;9.664;2024-01-30T01:46:54;30.83;;;19.35;;
2538;SDS011;1280;49.760;9.664;2024-01-30T01:49:24;28.67;;;18.48;;
2538;SDS011;1280;49.760;9.664;2024-01-30T01:51:55;30.42;;;18.52;;
2538;SDS011;1280;49.760;9.664;2024-01-30T01:54:24;26.75;;;17.20;;
2538;SDS011;1280;49.760;9.664;2024-01-30T01:56:54;27.23;;;17.63;;
2538;SDS011;1280;49.760;9.664;2024-01-30T01:59:23;25.60;;;17.52;;
2538;SDS011;1280;49.760;9.664;2024-01-30T02:01:52;28.30;;;16.58;;
2538;SDS011;1280;49.760;9.664;2024-01-30T02:04:23;25.10;;;18.05;;
2538;SDS011;1280;49.760;9.664;2024-01-30T02:06:51;23.65;;;17.00;;
2538;SDS011;1280;49.760;9.664;2024-01-30T02:09:19;27.00;;;16.90;;
2538;SDS011;1280;49.760;9.664;2024-01-30T02:11:48;26.45;;;16.98;;
2538;SDS011;1280;49.760;9.664;2024-01-30T02:14:16;23.33;;;15.35;;
2538;SDS011;1280;49.760;9.664;2024-01-30T02:16:46;25.40;;;17.67;;
2538;SDS011;1280;49.760;9.664;2024-01-30T02:19:14;28.48;;;18.00;;
2538;SDS011;1280;49.760;9.664;2024-01-30T02:21:43;26.02;;;16.45;;
2538;SDS011;1280;49.760;9.664;2024-01-30T02:24:12;23.75;;;15.77;;
2538;SDS011;1280;49.760;9.664;2024-01-30T02:26:40;50.10;;;26.83;;
2538;SDS011;1280;49.760;9.664;2024-01-30T02:29:08;42.50;;;24.17;;
2538;SDS011;1280;49.760;9.664;2024-01-30T02:31:36;36.10;;;19.75;;
2538;SDS011;1280;49.760;9.664;2024-01-30T02:34:04;27.70;;;17.88;;
2538;SDS011;1280;49.760;9.664;2024-01-30T02:36:32;27.77;;;18.00;;
2538;SDS011;1280;49.760;9.664;2024-01-30T02:39:02;29.52;;;17.15;;
2538;SDS011;1280;49.760;9.664;2024-01-30T02:41:31;23.00;;;16.75;;
2538;SDS011;1280;49.760;9.664;2024-01-30T02:43:59;28.60;;;17.85;;
2538;SDS011;1280;49.760;9.664;2024-01-30T02:46:27;31.35;;;19.25;;
2538;SDS011;1280;49.760;9.664;2024-01-30T02:48:55;27.30;;;17.75;;
2538;SDS011;1280;49.760;9.664;2024-01-30T02:51:24;30.17;;;17.90;;
2538;SDS011;1280;49.760;9.664;2024-01-30T02:53:52;29.40;;;19.63;;
2538;SDS011;1280;49.760;9.664;2024-01-30T02:56:21;26.95;;;17.45;;
2538;SDS011;1280;49.760;9.664;2024-01-30T02:58:49;27.55;;;19.75;;
2538;SDS011;1280;49.760;9.664;2024-01-30T03:01:17;31.08;;;19.95;;
2538;SDS011;1280;49.760;9.664;2024-01-30T03:03:45;28.80;;;20.13;;
2538;SDS011;1280;49.760;9.664;2024-01-30T03:06:15;25.75;;;18.60;;
2538;SDS011;1280;49.760;9.664;2024-01-30T03:08:46;31.13;;;18.65;;
2538;SDS011;1280;49.760;9.664;2024-01-30T03:11:14;32.13;;;21.10;;
2538;SDS011;1280;49.760;9.664;2024-01-30T03:13:44;37.42;;;24.35;;
2538;SDS011;1280;49.760;9.664;2024-01-30T03:16:12;32.67;;;20.20;;
2538;SDS011;1280;49.760;9.664;2024-01-30T03:18:40;28.55;;;19.08;;
2538;SDS011;1280;49.760;9.664;2024-01-30T03:21:08;28.98;;;17.77;;
2538;SDS011;1280;49.760;9.664;2024-01-30T03:23:36;27.50;;;18.52;;
2538;SDS011;1280;49.760;9.664;2024-01-30T03:26:04;27.35;;;19.05;;
2538;SDS011;1280;49.760;9.664;2024-01-30T03:28:34;28.38;;;20.55;;
2538;SDS011;1280;49.760;9.664;2024-01-30T03:31:03;25.38;;;16.70;;
2538;SDS011;1280;49.760;9.664;2024-01-30T03:33:31;23.95;;;18.10;;
2538;SDS011;1280;49.760;9.664;2024-01-30T03:36:02;24.75;;;18.25;;
2538;SDS011;1280;49.760;9.664;2024-01-30T03:38:30;25.65;;;18.17;;
2538;SDS011;1280;49.760;9.664;2024-01-30T03:40:59;23.40;;;16.27;;
2538;SDS011;1280;49.760;9.664;2024-01-30T03:43:28;27.60;;;19.52;;
2538;SDS011;1280;49.760;9.664;2024-01-30T03:45:55;27.35;;;18.23;;
2538;SDS011;1280;49.760;9.664;2024-01-30T03:48:25;26.85;;;17.40;;
2538;SDS011;1280;49.760;9.664;2024-01-30T03:50:53;22.13;;;16.85;;
2538;SDS011;1280;49.760;9.664;2024-01-30T03:53:21;22.20;;;16.30;;
2538;SDS011;1280;49.760;9.664;2024-01-30T03:55:49;22.63;;;15.93;;
2538;SDS011;1280;49.760;9.664;2024-01-30T03:58:17;28.63;;;17.25;;
2538;SDS011;1280;49.760;9.664;2024-01-30T04:00:45;28.55;;;18.13;;
2538;SDS011;1280;49.760;9.664;2024-01-30T04:03:14;28.40;;;18.75;;
2538;SDS011;1280;49.760;9.664;2024-01-30T04:05:43;24.17;;;16.88;;
2538;SDS011;1280;49.760;9.664;2024-01-30T04:08:12;26.88;;;17.63;;
2538;SDS011;1280;49.760;9.664;2024-01-30T04:10:40;27.35;;;17.70;;
2538;SDS011;1280;49.760;9.664;2024-01-30T04:13:08;28.98;;;17.52;;
2538;SDS011;1280;49.760;9.664;2024-01-30T04:15:39;27.35;;;17.90;;
2538;SDS011;1280;49.760;9.664;2024-01-30T04:18:07;28.15;;;17.20;;
2538;SDS011;1280;49.760;9.664;2024-01-30T04:20:35;21.40;;;15.48;;
2538;SDS011;1280;49.760;9.664;2024-01-30T04:23:04;22.33;;;16.00;;
2538;SDS011;1280;49.760;9.664;2024-01-30T04:25:33;22.33;;;15.90;;
2538;SDS011;1280;49.760;9.664;2024-01-30T04:28:01;23.45;;;17.05;;
2538;SDS011;1280;49.760;9.664;2024-01-30T04:30:29;24.17;;;17.65;;
2538;SDS011;1280;49.760;9.664;2024-01-30T04:32:57;21.83;;;16.08;;
2538;SDS011;1280;49.760;9.664;2024-01-30T04:35:25;25.90;;;16.73;;
2538;SDS011;1280;49.760;9.664;2024-01-30T04:37:53;86.50;;;33.97;;
2538;SDS011;1280;49.760;9.664;2024-01-30T04:40:22;45.67;;;25.50;;
2538;SDS011;1280;49.760;9.664;2024-01-30T04:42:50;34.97;;;21.17;;
2538;SDS011;1280;49.760;9.664;2024-01-30T04:45:18;30.25;;;19.60;;
2538;SDS011;1280;49.760;9.664;2024-01-30T04:47:46;26.35;;;17.08;;
2538;SDS011;1280;49.760;9.664;2024-01-30T04:50:14;23.70;;;16.08;;
2538;SDS011;1280;49.760;9.664;2024-01-30T04:52:42;23.17;;;16.55;;
2538;SDS011;1280;49.760;9.664;2024-01-30T04:55:10;31.17;;;17.05;;
2538;SDS011;1280;49.760;9.664;2024-01-30T04:57:40;26.35;;;17.65;;
2538;SDS011;1280;49.760;9.664;2024-01-30T05:00:08;25.13;;;17.65;;
2538;SDS011;1280;49.760;9.664;2024-01-30T05:02:37;22.73;;;16.25;;
2538;SDS011;1280;49.760;9.664;2024-01-30T05:05:06;24.85;;;16.90;;
2538;SDS011;1280;49.760;9.664;2024-01-30T05:07:36;26.70;;;17.00;;
2538;SDS011;1280;49.760;9.664;2024-01-30T05:10:04;30.30;;;17.55;;
2538;SDS011;1280;49.760;9.664;2024-01-30T05:12:32;30.25;;;19.48;;
2538;SDS011;1280;49.760;9.664;2024-01-30T05:15:02;29.45;;;19.80;;
2538;SDS011;1280;49.760;9.664;2024-01-30T05:17:31;30.58;;;20.58;;
2538;SDS011;1280;49.760;9.664;2024-01-30T05:19:59;29.45;;;20.63;;
2538;SDS011;1280;49.760;9.664;2024-01-30T05:22:28;34.05;;;21.70;;
2538;SDS011;1280;49.760;9.664;2024-01-30T05:24:56;32.97;;;20.90;;
2538;SDS011;1280;49.760;9.664;2024-01-30T05:27:24;28.00;;;20.02;;
2538;SDS011;1280;49.760;9.664;2024-01-30T05:29:53;29.90;;;20.63;;
2538;SDS011;1280;49.760;9.664;2024-01-30T05:32:23;28.60;;;19.95;;
2538;SDS011;1280;49.760;9.664;2024-01-30T05:34:51;26.67;;;19.58;;
2538;SDS011;1280;49.760;9.664;2024-01-30T05:37:19;32.03;;;20.33;;
2538;SDS011;1280;49.760;9.664;2024-01-30T05:39:48;35.33;;;20.88;;
2538;SDS011;1280;49.760;9.664;2024-01-30T05:42:16;27.95;;;19.50;;
2538;SDS011;1280;49.760;9.664;2024-01-30T05:44:44;35.20;;;20.73;;
2538;SDS011;1280;49.760;9.664;2024-01-30T05:47:12;31.02;;;19.05;;
2538;SDS011;1280;49.760;9.664;2024-01-30T05:49:41;25.10;;;17.55;;
2538;SDS011;1280;49.760;9.664;2024-01-30T05:52:09;27.45;;;18.35;;
2538;SDS011;1280;49.760;9.664;2024-01-30T05:54:37;30.08;;;19.50;;
2538;SDS011;1280;49.760;9.664;2024-01-30T05:57:05;34.65;;;20.20;;
2538;SDS011;1280;49.760;9.664;2024-01-30T05:59:33;31.00;;;21.38;;
2538;SDS011;1280;49.760;9.664;2024-01-30T06:02:06;33.15;;;20.60;;
2538;SDS011;1280;49.760;9.664;2024-01-30T06:04:35;31.65;;;20.02;;
2538;SDS011;1280;49.760;9.664;2024-01-30T06:07:04;29.55;;;19.17;;
2538;SDS011;1280;49.760;9.664;2024-01-30T06:09:33;32.88;;;18.10;;
2538;SDS011;1280;49.760;9.664;2024-01-30T06:12:02;29.40;;;20.15;;
2538;SDS011;1280;49.760;9.664;2024-01-30T06:14:31;31.85;;;19.83;;
2538;SDS011;1280;49.760;9.664;2024-01-30T06:17:00;31.42;;;19.52;;
2538;SDS011;1280;49.760;9.664;2024-01-30T06:19:28;31.25;;;19.70;;
2538;SDS011;1280;49.760;9.664;2024-01-30T06:21:56;33.47;;;20.38;;
2538;SDS011;1280;49.760;9.664;2024-01-30T06:24:25;37.78;;;24.27;;
2538;SDS011;1280;49.760;9.664;2024-01-30T06:26:54;48.28;;;27.50;;
2538;SDS011;1280;49.760;9.664;2024-01-30T06:29:22;47.28;;;24.73;;
2538;SDS011;1280;49.760;9.664;2024-01-30T06:31:51;36.83;;;24.13;;
2538;SDS011;1280;49.760;9.664;2024-01-30T06:34:19;40.00;;;24.15;;
2538;SDS011;1280;49.760;9.664;2024-01-30T06:36:47;38.00;;;23.85;;
2538;SDS011;1280;49.760;9.664;2024-01-30T06:39:15;37.80;;;24.60;;
2538;SDS011;1280;49.760;9.664;2024-01-30T06:41:45;32.22;;;22.58;;
2538;SDS011;1280;49.760;9.664;2024-01-30T06:44:13;40.63;;;25.40;;
2538;SDS011;1280;49.760;9.664;2024-01-30T06:46:41;38.22;;;24.73;;
2538;SDS011;1280;49.760;9.664;2024-01-30T06:49:09;37.35;;;23.25;;
2538;SDS011;1280;49.760;9.664;2024-01-30T06:51:37;39.72;;;21.73;;
2538;SDS011;1280;49.760;9.664;2024-01-30T06:54:05;31.73;;;21.63;;
2538;SDS011;1280;49.760;9.664;2024-01-30T06:56:33;30.45;;;19.63;;
2538;SDS011;1280;49.760;9.664;2024-01-30T06:59:03;32.30;;;20.95;;
2538;SDS011;1280;49.760;9.664;2024-01-30T07:01:31;32.97;;;21.65;;
2538;SDS011;1280;49.760;9.664;2024-01-30T07:03:59;38.10;;;24.10;;
2538;SDS011;1280;49.760;9.664;2024-01-30T07:06:28;39.70;;;27.08;;
2538;SDS011;1280;49.760;9.664;2024-01-30T07:08:56;38.97;;;25.77;;
2538;SDS011;1280;49.760;9.664;2024-01-30T07:11:24;45.95;;;28.85;;
2538;SDS011;1280;49.760;9.664;2024-01-30T07:13:53;39.03;;;25.15;;
2538;SDS011;1280;49.760;9.664;2024-01-30T07:16:23;42.85;;;26.83;;
2538;SDS011;1280;49.760;9.664;2024-01-30T07:18:51;40.67;;;26.83;;
2538;SDS011;1280;49.760;9.664;2024-01-30T07:21:19;38.80;;;23.98;;
2538;SDS011;1280;49.760;9.664;2024-01-30T07:23:49;36.20;;;23.20;;
2538;SDS011;1280;49.760;9.664;2024-01-30T07:26:17;47.15;;;31.42;;
2538;SDS011;1280;49.760;9.664;2024-01-30T07:28:45;81.70;;;46.65;;
2538;SDS011;1280;49.760;9.664;2024-01-30T07:31:13;95.00;;;50.78;;
2538;SDS011;1280;49.760;9.664;2024-01-30T07:33:42;80.50;;;44.88;;
2538;SDS011;1280;49.760;9.664;2024-01-30T07:36:10;67.68;;;44.15;;
2538;SDS011;1280;49.760;9.664;2024-01-30T07:38:38;65.80;;;39.63;;
2538;SDS011;1280;49.760;9.664;2024-01-30T07:41:06;66.63;;;39.80;;
2538;SDS011;1280;49.760;9.664;2024-01-30T07:43:34;59.53;;;38.15;;
2538;SDS011;1280;49.760;9.664;2024-01-30T07:46:02;65.40;;;38.65;;
2538;SDS011;1280;49.760;9.664;2024-01-30T07:48:32;70.47;;;42.55;;
2538;SDS011;1280;49.760;9.664;2024-01-30T07:51:02;78.25;;;45.80;;
2538;SDS011;1280;49.760;9.664;2024-01-30T07:53:30;81.07;;;44.95;;
2538;SDS011;1280;49.760;9.664;2024-01-30T07:55:58;88.65;;;43.83;;
2538;SDS011;1280;49.760;9.664;2024-01-30T07:58:26;68.75;;;39.47;;
2538;SDS011;1280;49.760;9.664;2024-01-30T08:00:54;83.22;;;45.53;;
2538;SDS011;1280;49.760;9.664;2024-01-30T08:03:25;88.90;;;47.28;;
2538;SDS011;1280;49.760;9.664;2024-01-30T08:05:53;121.22;;;57.35;;
2538;SDS011;1280;49.760;9.664;2024-01-30T08:08:23;118.05;;;58.42;;
2538;SDS011;1280;49.760;9.664;2024-01-30T08:10:52;117.90;;;59.83;;
2538;SDS011;1280;49.760;9.664;2024-01-30T08:13:21;105.60;;;53.95;;
2538;SDS011;1280;49.760;9.664;2024-01-30T08:15:49;83.55;;;46.78;;
2538;SDS011;1280;49.760;9.664;2024-01-30T08:18:17;59.65;;;35.58;;
2538;SDS011;1280;49.760;9.664;2024-01-30T08:20:45;61.55;;;38.08;;
2538;SDS011;1280;49.760;9.664;2024-01-30T08:23:15;62.45;;;37.83;;
2538;SDS011;1280;49.760;9.664;2024-01-30T08:25:44;64.40;;;37.33;;
2538;SDS011;1280;49.760;9.664;2024-01-30T08:28:13;64.97;;;37.47;;
2538;SDS011;1280;49.760;9.664;2024-01-30T08:30:43;65.68;;;39.03;;
2538;SDS011;1280;49.760;9.664;2024-01-30T08:33:11;65.93;;;39.40;;
2538;SDS011;1280;49.760;9.664;2024-01-30T08:35:40;67.03;;;42.30;;
2538;SDS011;1280;49.760;9.664;2024-01-30T08:38:08;67.55;;;39.63;;
2538;SDS011;1280;49.760;9.664;2024-01-30T08:40:38;75.75;;;44.97;;
2538;SDS011;1280;49.760;9.664;2024-01-30T08:43:08;92.78;;;52.83;;
2538;SDS011;1280;49.760;9.664;2024-01-30T08:45:36;84.18;;;51.80;;
2538;SDS011;1280;49.760;9.664;2024-01-30T08:48:07;87.15;;;50.08;;
2538;SDS011;1280;49.760;9.664;2024-01-30T08:50:35;91.85;;;49.63;;
2538;SDS011;1280;49.760;9.664;2024-01-30T08:53:03;87.95;;;52.10;;
2538;SDS011;1280;49.760;9.664;2024-01-30T08:55:31;81.50;;;47.35;;
2538;SDS011;1280;49.760;9.664;2024-01-30T08:58:00;74.22;;;48.10;;
2538;SDS011;1280;49.760;9.664;2024-01-30T09:00:31;90.90;;;51.13;;
2538;SDS011;1280;49.760;9.664;2024-01-30T09:02:59;93.15;;;55.17;;
2538;SDS011;1280;49.760;9.664;2024-01-30T09:05:27;88.72;;;54.75;;
2538;SDS011;1280;49.760;9.664;2024-01-30T09:07:56;62.92;;;40.42;;
2538;SDS011;1280;49.760;9.664;2024-01-30T09:10:26;63.42;;;39.75;;
2538;SDS011;1280;49.760;9.664;2024-01-30T09:12:55;60.08;;;37.85;;
2538;SDS011;1280;49.760;9.664;2024-01-30T09:15:23;53.28;;;36.10;;
2538;SDS011;1280;49.760;9.664;2024-01-30T09:17:54;57.90;;;36.53;;
2538;SDS011;1280;49.760;9.664;2024-01-30T09:20:22;51.72;;;34.58;;
2538;SDS011;1280;49.760;9.664;2024-01-30T09:22:51;53.00;;;35.17;;
2538;SDS011;1280;49.760;9.664;2024-01-30T09:25:19;48.10;;;31.85;;
2538;SDS011;1280;49.760;9.664;2024-01-30T09:27:47;47.15;;;30.58;;
2538;SDS011;1280;49.760;9.664;2024-01-30T09:30:16;39.47;;;27.20;;
2538;SDS011;1280;49.760;9.664;2024-01-30T09:32:44;40.67;;;25.80;;
2538;SDS011;1280;49.760;9.664;2024-01-30T09:35:19;40.90;;;25.98;;
2538;SDS011;1280;49.760;9.664;2024-01-30T09:37:49;33.95;;;23.75;;
2538;SDS011;1280;49.760;9.664;2024-01-30T09:40:18;35.50;;;22.52;;
2538;SDS011;1280;49.760;9.664;2024-01-30T09:42:50;33.50;;;21.70;;
2538;SDS011;1280;49.760;9.664;2024-01-30T09:45:21;33.08;;;22.10;;
2538;SDS011;1280;49.760;9.664;2024-01-30T09:48:02;32.47;;;22.85;;
2538;SDS011;1280;49.760;9.664;2024-01-30T09:50:38;30.00;;;20.75;;
2538;SDS011;1280;49.760;9.664;2024-01-30T09:53:07;32.28;;;21.23;;
2538;SDS011;1280;49.760;9.664;2024-01-30T09:55:36;30.00;;;22.15;;
2538;SDS011;1280;49.760;9.664;2024-01-30T09:58:12;34.95;;;23.40;;
2538;SDS011;1280;49.760;9.664;2024-01-30T10:00:41;31.73;;;21.38;;
2538;SDS011;1280;49.760;9.664;2024-01-30T10:03:11;30.50;;;22.42;;
2538;SDS011;1280;49.760;9.664;2024-01-30T10:08:52;26.45;;;19.20;;
2538;SDS011;1280;49.760;9.664;2024-01-30T10:11:23;32.65;;;22.00;;
2538;SDS011;1280;49.760;9.664;2024-01-30T10:13:55;27.77;;;20.42;;
2538;SDS011;1280;49.760;9.664;2024-01-30T10:16:35;29.20;;;20.15;;
2538;SDS011;1280;49.760;9.664;2024-01-30T10:19:07;29.50;;;21.33;;
2538;SDS011;1280;49.760;9.664;2024-01-30T10:21:42;29.73;;;20.80;;
2538;SDS011;1280;49.760;9.664;2024-01-30T10:24:11;32.83;;;21.58;;
2538;SDS011;1280;49.760;9.664;2024-01-30T10:26:43;27.33;;;21.52;;
2538;SDS011;1280;49.760;9.664;2024-01-30T10:29:15;27.30;;;20.75;;
2538;SDS011;1280;49.760;9.664;2024-01-30T10:31:56;27.98;;;20.63;;
2538;SDS011;1280;49.760;9.664;2024-01-30T10:34:26;28.00;;;20.67;;
2538;SDS011;1280;49.760;9.664;2024-01-30T10:37:00;31.60;;;21.15;;
2538;SDS011;1280;49.760;9.664;2024-01-30T10:39:43;29.92;;;21.15;;
2538;SDS011;1280;49.760;9.664;2024-01-30T10:42:14;33.13;;;23.38;;
2538;SDS011;1280;49.760;9.664;2024-01-30T10:44:54;31.02;;;23.10;;
2538;SDS011;1280;49.760;9.664;2024-01-30T10:47:33;26.55;;;20.13;;
2538;SDS011;1280;49.760;9.664;2024-01-30T10:50:07;34.72;;;23.13;;
2538;SDS011;1280;49.760;9.664;2024-01-30T10:52:44;32.83;;;23.10;;
2538;SDS011;1280;49.760;9.664;2024-01-30T10:55:15;30.55;;;22.58;;
2538;SDS011;1280;49.760;9.664;2024-01-30T10:57:49;36.72;;;22.38;;
2538;SDS011;1280;49.760;9.664;2024-01-30T11:00:22;29.75;;;21.83;;
2538;SDS011;1280;49.760;9.664;2024-01-30T11:02:50;29.30;;;21.85;;
2538;SDS011;1280;49.760;9.664;2024-01-30T11:05:27;28.88;;;21.90;;
2538;SDS011;1280;49.760;9.664;2024-01-30T11:08:00;31.08;;;22.15;;
2538;SDS011;1280;49.760;9.664;2024-01-30T11:10:44;35.47;;;24.08;;
2538;SDS011;1280;49.760;9.664;2024-01-30T11:13:13;33.55;;;23.40;;
2538;SDS011;1280;49.760;9.664;2024-01-30T11:15:41;32.35;;;23.08;;
2538;SDS011;1280;49.760;9.664;2024-01-30T11:18:09;31.08;;;21.40;;
2538;SDS011;1280;49.760;9.664;2024-01-30T11:20:38;34.33;;;21.92;;
2538;SDS011;1280;49.760;9.664;2024-01-30T11:23:13;27.40;;;21.02;;
2538;SDS011;1280;49.760;9.664;2024-01-30T11:25:43;27.75;;;21.30;;
2538;SDS011;1280;49.760;9.664;2024-01-30T11:28:13;31.30;;;21.90;;
2538;SDS011;1280;49.760;9.664;2024-01-30T11:30:42;29.42;;;22.48;;
2538;SDS011;1280;49.760;9.664;2024-01-30T11:33:11;30.80;;;23.33;;
2538;SDS011;1280;49.760;9.664;2024-01-30T11:35:42;31.55;;;23.33;;
2538;SDS011;1280;49.760;9.664;2024-01-30T11:38:14;35.42;;;23.25;;
2538;SDS011;1280;49.760;9.664;2024-01-30T11:40:42;50.25;;;32.72;;
2538;SDS011;1280;49.760;9.664;2024-01-30T11:43:11;43.88;;;31.55;;
2538;SDS011;1280;49.760;9.664;2024-01-30T11:45:39;42.65;;;27.00;;
2538;SDS011;1280;49.760;9.664;2024-01-30T11:48:08;37.67;;;24.92;;
2538;SDS011;1280;49.760;9.664;2024-01-30T11:50:37;33.58;;;24.20;;
2538;SDS011;1280;49.760;9.664;2024-01-30T11:53:06;40.92;;;22.63;;
2538;SDS011;1280;49.760;9.664;2024-01-30T11:55:37;31.80;;;22.77;;
2538;SDS011;1280;49.760;9.664;2024-01-30T11:58:06;30.83;;;21.08;;
2538;SDS011;1280;49.760;9.664;2024-01-30T12:00:35;30.83;;;23.15;;
2538;SDS011;1280;49.760;9.664;2024-01-30T12:03:03;37.10;;;24.38;;
2538;SDS011;1280;49.760;9.664;2024-01-30T12:05:33;33.30;;;23.35;;
2538;SDS011;1280;49.760;9.664;2024-01-30T12:08:03;34.65;;;23.05;;
2538;SDS011;1280;49.760;9.664;2024-01-30T12:10:31;30.70;;;23.38;;
2538;SDS011;1280;49.760;9.664;2024-01-30T12:13:01;36.70;;;25.92;;
2538;SDS011;1280;49.760;9.664;2024-01-30T12:15:29;39.17;;;22.38;;
2538;SDS011;1280;49.760;9.664;2024-01-30T12:18:03;31.13;;;22.73;;
2538;SDS011;1280;49.760;9.664;2024-01-30T12:20:32;33.33;;;24.35;;
2538;SDS011;1280;49.760;9.664;2024-01-30T12:23:01;34.03;;;23.20;;
2538;SDS011;1280;49.760;9.664;2024-01-30T12:25:29;29.67;;;22.58;;
2538;SDS011;1280;49.760;9.664;2024-01-30T12:27:57;30.55;;;23.88;;
2538;SDS011;1280;49.760;9.664;2024-01-30T12:30:27;30.05;;;23.02;;
2538;SDS011;1280;49.760;9.664;2024-01-30T12:32:56;35.97;;;25.73;;
2538;SDS011;1280;49.760;9.664;2024-01-30T12:35:24;32.58;;;23.67;;
2538;SDS011;1280;49.760;9.664;2024-01-30T12:37:57;29.00;;;22.63;;
2538;SDS011;1280;49.760;9.664;2024-01-30T12:40:25;37.50;;;24.80;;
2538;SDS011;1280;49.760;9.664;2024-01-30T12:42:54;37.45;;;24.00;;
2538;SDS011;1280;49.760;9.664;2024-01-30T12:45:22;30.42;;;22.48;;
2538;SDS011;1280;49.760;9.664;2024-01-30T12:47:51;36.08;;;22.55;;
2538;SDS011;1280;49.760;9.664;2024-01-30T12:50:20;30.90;;;23.05;;
2538;SDS011;1280;49.760;9.664;2024-01-30T12:52:48;33.63;;;22.50;;
2538;SDS011;1280;49.760;9.664;2024-01-30T12:55:17;31.23;;;22.77;;
2538;SDS011;1280;49.760;9.664;2024-01-30T12:57:45;33.67;;;23.20;;
2538;SDS011;1280;49.760;9.664;2024-01-30T13:00:13;34.45;;;23.40;;
2538;SDS011;1280;49.760;9.664;2024-01-30T13:02:43;43.83;;;29.38;;
2538;SDS011;1280;49.760;9.664;2024-01-30T13:05:12;41.55;;;26.13;;
2538;SDS011;1280;49.760;9.664;2024-01-30T13:07:41;37.80;;;25.23;;
2538;SDS011;1280;49.760;9.664;2024-01-30T13:10:09;32.22;;;22.73;;
2538;SDS011;1280;49.760;9.664;2024-01-30T13:12:38;36.00;;;25.33;;
2538;SDS011;1280;49.760;9.664;2024-01-30T13:15:06;34.60;;;24.88;;
2538;SDS011;1280;49.760;9.664;2024-01-30T13:17:35;35.95;;;24.45;;
2538;SDS011;1280;49.760;9.664;2024-01-30T13:20:03;30.05;;;21.77;;
2538;SDS011;1280;49.760;9.664;2024-01-30T13:22:39;31.95;;;23.95;;
2538;SDS011;1280;49.760;9.664;2024-01-30T13:25:07;34.67;;;21.98;;
2538;SDS011;1280;49.760;9.664;2024-01-30T13:27:37;31.33;;;22.75;;
2538;SDS011;1280;49.760;9.664;2024-01-30T13:30:06;32.53;;;23.23;;
2538;SDS011;1280;49.760;9.664;2024-01-30T13:32:35;32.58;;;23.50;;
2538;SDS011;1280;49.760;9.664;2024-01-30T13:35:04;32.97;;;22.27;;
2538;SDS011;1280;49.760;9.664;2024-01-30T13:37:33;35.72;;;22.33;;
2538;SDS011;1280;49.760;9.664;2024-01-30T13:40:03;30.60;;;21.60;;
2538;SDS011;1280;49.760;9.664;2024-01-30T13:42:37;29.05;;;22.08;;
2538;SDS011;1280;49.760;9.664;2024-01-30T13:45:05;33.10;;;22.80;;
2538;SDS011;1280;49.760;9.664;2024-01-30T13:47:36;30.92;;;22.80;;
2538;SDS011;1280;49.760;9.664;2024-01-30T13:50:04;33.35;;;22.27;;
2538;SDS011;1280;49.760;9.664;2024-01-30T13:52:34;35.85;;;22.52;;
2538;SDS011;1280;49.760;9.664;2024-01-30T13:55:11;29.48;;;22.80;;
2538;SDS011;1280;49.760;9.664;2024-01-30T13:57:40;39.58;;;25.65;;
2538;SDS011;1280;49.760;9.664;2024-01-30T14:00:08;32.35;;;23.85;;
2538;SDS011;1280;49.760;9.664;2024-01-30T14:02:40;32.10;;;23.17;;
2538;SDS011;1280;49.760;9.664;2024-01-30T14:05:08;32.85;;;22.23;;
2538;SDS011;1280;49.760;9.664;2024-01-30T14:07:37;31.27;;;22.70;;
2538;SDS011;1280;49.760;9.664;2024-01-30T14:10:07;37.33;;;24.60;;
2538;SDS011;1280;49.760;9.664;2024-01-30T14:12:41;31.85;;;23.20;;
2538;SDS011;1280;49.760;9.664;2024-01-30T14:15:10;32.65;;;23.02;;
2538;SDS011;1280;49.760;9.664;2024-01-30T14:17:52;33.75;;;23.98;;
2538;SDS011;1280;49.760;9.664;2024-01-30T14:20:21;32.45;;;22.50;;
2538;SDS011;1280;49.760;9.664;2024-01-30T14:22:50;30.35;;;23.20;;
2538;SDS011;1280;49.760;9.664;2024-01-30T14:25:19;33.55;;;23.05;;
2538;SDS011;1280;49.760;9.664;2024-01-30T14:27:50;27.88;;;22.20;;
2538;SDS011;1280;49.760;9.664;2024-01-30T14:30:18;31.92;;;21.67;;
2538;SDS011;1280;49.760;9.664;2024-01-30T14:32:46;31.80;;;23.92;;
2538;SDS011;1280;49.760;9.664;2024-01-30T14:35:15;31.83;;;23.35;;
2538;SDS011;1280;49.760;9.664;2024-01-30T14:37:43;33.47;;;22.60;;
2538;SDS011;1280;49.760;9.664;2024-01-30T14:40:11;33.75;;;24.52;;
2538;SDS011;1280;49.760;9.664;2024-01-30T14:42:40;31.77;;;22.95;;
2538;SDS011;1280;49.760;9.664;2024-01-30T14:45:09;29.80;;;21.55;;
2538;SDS011;1280;49.760;9.664;2024-01-30T14:47:38;33.78;;;23.25;;
2538;SDS011;1280;49.760;9.664;2024-01-30T14:50:07;30.25;;;22.27;;
2538;SDS011;1280;49.760;9.664;2024-01-30T14:52:36;29.10;;;22.17;;
2538;SDS011;1280;49.760;9.664;2024-01-30T14:55:06;29.52;;;24.00;;
2538;SDS011;1280;49.760;9.664;2024-01-30T14:57:35;35.90;;;23.63;;
2538;SDS011;1280;49.760;9.664;2024-01-30T15:00:06;36.72;;;25.00;;
2538;SDS011;1280;49.760;9.664;2024-01-30T15:02:36;31.38;;;22.70;;